Time;durP1;ratioP1;P1;durP2;ratioP2;P2;SDS_P1;SDS_P2;PMS_P1;PMS_P2;Temp;Humidity;BMP_temperature;BMP_pressure;BME280_temperature;BME280_humidity;BME280_pressure;Samples;Min_cycle;Max_cycle;Signal;HPM_P1;HPM_P2
2022/05/06 00:00:52;;;;;;;0.00;0.00;;;;;;;;;;5018365;28;20378;-60
2022/05/06 00:03:17;;;;;;;0.15;0.15;;;;;;;;;;5027634;28;20034;-59
2022/05/06 00:05:43;;;;;;;0.00;0.00;;;;;;;;;;5022717;28;20042;-60
2022/05/06 00:08:10;;;;;;;0.00;0.00;;;;;;;;;;5006295;28;20025;-59
2022/05/06 00:10:36;;;;;;;0.00;0.00;;;;;;;;;;5018745;28;20117;-60
2022/05/06 00:13:01;;;;;;;0.00;0.00;;;;;;;;;;5021851;28;20493;-59
2022/05/06 00:15:26;;;;;;;2.28;2.08;;;;;;;;;;5016096;28;20096;-60
2022/05/06 00:17:52;;;;;;;0.17;0.17;;;;;;;;;;5014565;28;20034;-59
2022/05/06 00:20:17;;;;;;;0.00;0.00;;;;;;;;;;5022696;28;20018;-58
2022/05/06 00:22:43;;;;;;;0.43;0.43;;;;;;;;;;5019206;28;20037;-58
2022/05/06 00:25:09;;;;;;;0.00;0.00;;;;;;;;;;5020717;28;20467;-58
2022/05/06 00:27:37;;;;;;;0.00;0.00;;;;;;;;;;5018906;28;20041;-58
2022/05/06 00:30:02;;;;;;;3.63;0.70;;;;;;;;;;5013387;28;20026;-58
2022/05/06 00:32:28;;;;;;;0.00;0.00;;;;;;;;;;5024228;28;20487;-56
2022/05/06 00:34:55;;;;;;;0.43;0.43;;;;;;;;;;5030855;28;20041;-58
2022/05/06 00:37:20;;;;;;;0.20;0.20;;;;;;;;;;5029497;28;20026;-58
2022/05/06 00:39:46;;;;;;;20.17;4.80;;;;;;;;;;5029264;28;20378;-58
2022/05/06 00:42:11;;;;;;;1.35;0.75;;;;;;;;;;5029163;28;20030;-58
2022/05/06 00:44:36;;;;;;;0.00;0.00;;;;;;;;;;5029579;28;20025;-59
2022/05/06 00:47:02;;;;;;;0.00;0.00;;;;;;;;;;5027830;28;20477;-58
2022/05/06 00:49:27;;;;;;;0.17;0.17;;;;;;;;;;5029550;28;20749;-58
2022/05/06 00:51:53;;;;;;;0.00;0.00;;;;;;;;;;5030805;28;20018;-58
2022/05/06 00:54:21;;;;;;;0.00;0.00;;;;;;;;;;5032036;28;20026;-57
2022/05/06 00:56:46;;;;;;;0.00;0.00;;;;;;;;;;5030991;28;20029;-58
2022/05/06 00:59:12;;;;;;;0.00;0.00;;;;;;;;;;5027993;28;20048;-57
2022/05/06 01:01:38;;;;;;;0.52;0.52;;;;;;;;;;5029790;28;20076;-58
2022/05/06 01:04:04;;;;;;;0.10;0.10;;;;;;;;;;5028955;28;20033;-59
2022/05/06 01:06:29;;;;;;;0.00;0.00;;;;;;;;;;5028086;28;20049;-58
2022/05/06 01:08:55;;;;;;;0.00;0.00;;;;;;;;;;5030043;28;20056;-59
2022/05/06 01:11:20;;;;;;;0.85;0.85;;;;;;;;;;5027665;28;20026;-58
2022/05/06 01:13:46;;;;;;;0.10;0.10;;;;;;;;;;5029907;28;20022;-59
2022/05/06 01:16:12;;;;;;;0.35;0.35;;;;;;;;;;5028647;28;20037;-59
2022/05/06 01:18:37;;;;;;;1.02;1.02;;;;;;;;;;5030297;28;20021;-59
2022/05/06 01:21:03;;;;;;;0.22;0.22;;;;;;;;;;5029755;28;20041;-59
2022/05/06 01:23:28;;;;;;;0.00;0.00;;;;;;;;;;5032332;28;20018;-58
2022/05/06 01:25:54;;;;;;;0.00;0.00;;;;;;;;;;5030255;28;20090;-59
2022/05/06 01:34:39;;;;;;;1.08;1.08;;;;;;;;;;5050886;28;20043;-58
2022/05/06 01:37:05;;;;;;;0.00;0.00;;;;;;;;;;5069805;28;20059;-58
2022/05/06 01:39:34;;;;;;;0.00;0.00;;;;;;;;;;5070343;28;20020;-59
2022/05/06 01:42:02;;;;;;;0.00;0.00;;;;;;;;;;5068429;28;20020;-59
2022/05/06 01:44:30;;;;;;;0.00;0.00;;;;;;;;;;5069584;28;20036;-59
2022/05/06 01:46:57;;;;;;;0.52;0.52;;;;;;;;;;5068490;28;20037;-58
2022/05/06 01:49:23;;;;;;;0.00;0.00;;;;;;;;;;5073393;28;20099;-57
2022/05/06 01:51:49;;;;;;;0.30;0.30;;;;;;;;;;5054630;28;20096;-58
2022/05/06 01:54:14;;;;;;;0.00;0.00;;;;;;;;;;5073037;28;20018;-58
2022/05/06 01:56:41;;;;;;;0.00;0.00;;;;;;;;;;5056517;28;20025;-59
2022/05/06 01:59:06;;;;;;;0.13;0.13;;;;;;;;;;5071301;28;20024;-59
2022/05/06 02:01:33;;;;;;;0.93;0.93;;;;;;;;;;5074232;28;20021;-57
2022/05/06 02:06:42;;;;;;;0.43;0.38;;;;;;;;;;5075619;28;20070;-58
2022/05/06 02:09:07;;;;;;;0.75;0.75;;;;;;;;;;5073571;28;20032;-58
2022/05/06 02:11:33;;;;;;;0.35;0.35;;;;;;;;;;5074397;28;20031;-57
2022/05/06 02:13:58;;;;;;;0.00;0.00;;;;;;;;;;5074094;28;20020;-58
2022/05/06 02:16:24;;;;;;;0.25;0.25;;;;;;;;;;5070191;28;20023;-58
2022/05/06 02:18:49;;;;;;;0.35;0.28;;;;;;;;;;5073386;28;20016;-58
2022/05/06 02:21:14;;;;;;;0.00;0.00;;;;;;;;;;5072462;28;20381;-58
2022/05/06 02:23:39;;;;;;;0.13;0.10;;;;;;;;;;5072466;28;20048;-57
2022/05/06 02:26:04;;;;;;;0.22;0.22;;;;;;;;;;5071681;28;20021;-59
2022/05/06 02:28:30;;;;;;;0.10;0.10;;;;;;;;;;5069110;28;20503;-60
2022/05/06 02:33:39;;;;;;;0.00;0.00;;;;;;;;;;5070012;28;20023;-59
2022/05/06 02:36:05;;;;;;;1.10;1.10;;;;;;;;;;5070461;28;20465;-58
2022/05/06 02:38:30;;;;;;;0.20;0.20;;;;;;;;;;5069899;28;20036;-58
2022/05/06 02:40:56;;;;;;;1.08;0.75;;;;;;;;;;5071134;28;20035;-58
2022/05/06 02:43:21;;;;;;;0.00;0.00;;;;;;;;;;5070922;28;21814;-59
2022/05/06 02:45:46;;;;;;;0.40;0.40;;;;;;;;;;5069165;28;20025;-59
2022/05/06 02:48:12;;;;;;;0.00;0.00;;;;;;;;;;5070151;28;20090;-58
2022/05/06 02:50:37;;;;;;;0.03;0.03;;;;;;;;;;5070771;28;20025;-58
2022/05/06 02:53:04;;;;;;;1.08;0.28;;;;;;;;;;5070459;28;20389;-58
2022/05/06 02:55:29;;;;;;;0.22;0.22;;;;;;;;;;5070995;28;20100;-60
2022/05/06 02:57:54;;;;;;;0.45;0.45;;;;;;;;;;5069721;28;20102;-59
2022/05/06 03:00:20;;;;;;;0.00;0.00;;;;;;;;;;5070015;28;20039;-59
2022/05/06 03:02:45;;;;;;;0.00;0.00;;;;;;;;;;5069994;28;20063;-58
2022/05/06 03:05:11;;;;;;;0.90;0.70;;;;;;;;;;5070659;28;20016;-59
2022/05/06 03:07:36;;;;;;;0.00;0.00;;;;;;;;;;5072000;28;20074;-59
2022/05/06 03:10:02;;;;;;;0.43;0.43;;;;;;;;;;5072166;28;20020;-60
2022/05/06 03:12:29;;;;;;;1.88;0.68;;;;;;;;;;5071769;28;20051;-60
2022/05/06 03:14:54;;;;;;;0.55;0.55;;;;;;;;;;5071573;28;20021;-59
2022/05/06 03:17:19;;;;;;;0.00;0.00;;;;;;;;;;5071545;28;20025;-59
2022/05/06 03:19:45;;;;;;;0.57;0.57;;;;;;;;;;5071717;28;20104;-59
2022/05/06 03:22:10;;;;;;;0.10;0.10;;;;;;;;;;5071680;28;20020;-59
2022/05/06 03:24:35;;;;;;;0.00;0.00;;;;;;;;;;5071846;28;20062;-58
2022/05/06 03:27:00;;;;;;;0.00;0.00;;;;;;;;;;5071088;28;20322;-59
2022/05/06 03:29:26;;;;;;;0.00;0.00;;;;;;;;;;5071497;28;20021;-59
2022/05/06 03:31:51;;;;;;;0.05;0.05;;;;;;;;;;5072534;28;20021;-59
2022/05/06 03:34:17;;;;;;;0.00;0.00;;;;;;;;;;5072735;28;20048;-58
2022/05/06 03:36:42;;;;;;;0.22;0.22;;;;;;;;;;5074199;28;20174;-58
2022/05/06 03:39:07;;;;;;;0.80;0.80;;;;;;;;;;5072439;28;20017;-59
2022/05/06 03:41:33;;;;;;;0.20;0.20;;;;;;;;;;5072412;28;20095;-58
2022/05/06 03:43:58;;;;;;;0.00;0.00;;;;;;;;;;5072222;28;20098;-58
2022/05/06 03:46:23;;;;;;;0.00;0.00;;;;;;;;;;5072589;28;20039;-59
2022/05/06 03:48:51;;;;;;;0.10;0.10;;;;;;;;;;5072404;28;20468;-58
2022/05/06 03:51:22;;;;;;;0.08;0.08;;;;;;;;;;5067281;28;20035;-59
2022/05/06 03:53:51;;;;;;;0.45;0.45;;;;;;;;;;5060192;28;20055;-58
2022/05/06 03:56:17;;;;;;;0.68;0.68;;;;;;;;;;5071629;28;20078;-60
2022/05/06 03:58:42;;;;;;;0.70;0.70;;;;;;;;;;5069341;28;20025;-59
2022/05/06 04:01:07;;;;;;;0.43;0.43;;;;;;;;;;5071043;28;20023;-59
2022/05/06 04:03:33;;;;;;;0.20;0.20;;;;;;;;;;5070335;28;20078;-59
2022/05/06 04:05:58;;;;;;;0.68;0.68;;;;;;;;;;5073003;28;20382;-59
2022/05/06 04:08:23;;;;;;;1.33;1.33;;;;;;;;;;5068903;28;20644;-58
2022/05/06 04:10:48;;;;;;;0.45;0.45;;;;;;;;;;5069116;28;20025;-59
2022/05/06 04:13:16;;;;;;;0.05;0.05;;;;;;;;;;5071504;28;20558;-58
2022/05/06 04:15:42;;;;;;;0.68;0.68;;;;;;;;;;5059455;28;20425;-59
2022/05/06 04:18:07;;;;;;;0.08;0.08;;;;;;;;;;5072053;28;20484;-59
2022/05/06 04:23:29;;;;;;;0.25;0.25;;;;;;;;;;5070605;28;20066;-59
2022/05/06 04:25:55;;;;;;;0.47;0.47;;;;;;;;;;5069345;28;20039;-60
2022/05/06 04:28:21;;;;;;;0.80;0.80;;;;;;;;;;5070087;28;20461;-59
2022/05/06 04:30:46;;;;;;;1.10;0.65;;;;;;;;;;5063654;28;20067;-59
2022/05/06 04:33:11;;;;;;;0.10;0.10;;;;;;;;;;5064295;28;20024;-59
2022/05/06 04:35:36;;;;;;;0.25;0.25;;;;;;;;;;5070545;28;20036;-59
2022/05/06 04:38:02;;;;;;;0.80;0.80;;;;;;;;;;5070019;28;20017;-58
2022/05/06 04:40:27;;;;;;;4.10;0.95;;;;;;;;;;5067945;28;20052;-58
2022/05/06 04:42:52;;;;;;;0.13;0.10;;;;;;;;;;5052498;28;20518;-59
2022/05/06 04:45:17;;;;;;;0.00;0.00;;;;;;;;;;5070468;28;20016;-59
2022/05/06 04:47:43;;;;;;;0.77;0.75;;;;;;;;;;5070453;28;20500;-59
2022/05/06 04:50:08;;;;;;;0.30;0.20;;;;;;;;;;5070723;28;20377;-59
2022/05/06 04:52:34;;;;;;;0.10;0.10;;;;;;;;;;5070883;28;20062;-59
2022/05/06 04:54:59;;;;;;;0.00;0.00;;;;;;;;;;5069349;28;20477;-60
2022/05/06 04:57:24;;;;;;;0.00;0.00;;;;;;;;;;5069150;28;20031;-59
2022/05/06 04:59:49;;;;;;;0.98;0.88;;;;;;;;;;5069885;28;20024;-59
2022/05/06 05:02:16;;;;;;;1.95;1.60;;;;;;;;;;5070081;28;20107;-60
2022/05/06 05:04:41;;;;;;;0.00;0.00;;;;;;;;;;5070109;28;20031;-59
2022/05/06 05:07:07;;;;;;;0.22;0.22;;;;;;;;;;5071593;28;20037;-59
2022/05/06 05:09:32;;;;;;;0.00;0.00;;;;;;;;;;5071350;28;20078;-59
2022/05/06 05:11:57;;;;;;;0.20;0.15;;;;;;;;;;5070489;28;20381;-59
2022/05/06 05:14:23;;;;;;;0.00;0.00;;;;;;;;;;5070935;28;20531;-59
2022/05/06 05:16:50;;;;;;;0.00;0.00;;;;;;;;;;5070979;28;20016;-58
2022/05/06 05:19:15;;;;;;;0.30;0.30;;;;;;;;;;5071535;28;20021;-57
2022/05/06 05:21:40;;;;;;;0.00;0.00;;;;;;;;;;5070376;28;20024;-58
2022/05/06 05:24:06;;;;;;;0.77;0.77;;;;;;;;;;5074906;28;20025;-57
2022/05/06 05:26:31;;;;;;;0.00;0.00;;;;;;;;;;5074553;28;20016;-59
2022/05/06 05:28:56;;;;;;;0.00;0.00;;;;;;;;;;5074766;28;20025;-59
2022/05/06 05:31:22;;;;;;;0.00;0.00;;;;;;;;;;5073570;28;20116;-59
2022/05/06 05:33:47;;;;;;;0.98;0.98;;;;;;;;;;5074320;28;20099;-59
2022/05/06 05:36:13;;;;;;;0.00;0.00;;;;;;;;;;5075102;28;20101;-58
2022/05/06 05:38:38;;;;;;;14.70;3.78;;;;;;;;;;5073651;28;20047;-59
2022/05/06 05:41:04;;;;;;;0.00;0.00;;;;;;;;;;5074100;28;20419;-60
2022/05/06 05:48:57;;;;;;;0.00;0.00;;;;;;;;;;5072768;28;20035;-60
2022/05/06 05:51:22;;;;;;;0.00;0.00;;;;;;;;;;5074064;28;20017;-60
2022/05/06 05:53:47;;;;;;;1.08;1.08;;;;;;;;;;5072939;28;20054;-60
2022/05/06 05:56:12;;;;;;;0.00;0.00;;;;;;;;;;5073364;28;20372;-59
2022/05/06 05:58:38;;;;;;;0.00;0.00;;;;;;;;;;5073809;28;20370;-59
2022/05/06 06:01:03;;;;;;;0.08;0.08;;;;;;;;;;5073930;28;20040;-60
2022/05/06 06:03:28;;;;;;;0.00;0.00;;;;;;;;;;5074036;28;20024;-59
2022/05/06 06:05:53;;;;;;;0.35;0.35;;;;;;;;;;5073487;28;20029;-59
2022/05/06 06:08:19;;;;;;;0.85;0.85;;;;;;;;;;5071429;28;20112;-59
2022/05/06 06:10:44;;;;;;;0.00;0.00;;;;;;;;;;5073664;28;20027;-60
2022/05/06 06:13:09;;;;;;;0.05;0.05;;;;;;;;;;5055196;28;20013;-60
2022/05/06 06:15:34;;;;;;;0.00;0.00;;;;;;;;;;5073783;28;20020;-60
2022/05/06 06:18:00;;;;;;;0.00;0.00;;;;;;;;;;5073831;28;20133;-59
2022/05/06 06:20:26;;;;;;;0.00;0.00;;;;;;;;;;5074487;28;20029;-59
2022/05/06 06:22:51;;;;;;;0.00;0.00;;;;;;;;;;5073938;28;20111;-60
2022/05/06 06:25:16;;;;;;;0.00;0.00;;;;;;;;;;5074144;28;20095;-61
2022/05/06 06:27:44;;;;;;;0.25;0.25;;;;;;;;;;5074094;28;20016;-61
2022/05/06 06:30:10;;;;;;;0.00;0.00;;;;;;;;;;5073697;28;20024;-62
2022/05/06 06:32:35;;;;;;;0.00;0.00;;;;;;;;;;5074107;28;20028;-61
2022/05/06 06:35:00;;;;;;;0.00;0.00;;;;;;;;;;5071169;28;20055;-59
2022/05/06 06:37:27;;;;;;;0.00;0.00;;;;;;;;;;5073983;28;20020;-59
2022/05/06 06:39:52;;;;;;;0.00;0.00;;;;;;;;;;5074403;28;20055;-60
2022/05/06 06:42:17;;;;;;;0.05;0.05;;;;;;;;;;5074733;28;20059;-60
2022/05/06 06:44:43;;;;;;;0.00;0.00;;;;;;;;;;5073135;28;20028;-59
2022/05/06 06:47:09;;;;;;;0.00;0.00;;;;;;;;;;5073478;28;20359;-59
2022/05/06 06:49:34;;;;;;;0.13;0.13;;;;;;;;;;5074155;28;20024;-59
2022/05/06 06:51:59;;;;;;;0.00;0.00;;;;;;;;;;5071260;28;20048;-61
2022/05/06 06:54:24;;;;;;;0.00;0.00;;;;;;;;;;5072737;28;20255;-58
2022/05/06 06:56:49;;;;;;;0.00;0.00;;;;;;;;;;5071651;28;20258;-59
2022/05/06 06:59:15;;;;;;;0.00;0.00;;;;;;;;;;5070127;28;20869;-59
2022/05/06 07:01:40;;;;;;;0.10;0.10;;;;;;;;;;5071620;28;20024;-60
2022/05/06 07:04:05;;;;;;;0.45;0.45;;;;;;;;;;5053688;28;20267;-60
2022/05/06 07:11:58;;;;;;;0.00;0.00;;;;;;;;;;5072850;28;20401;-60
2022/05/06 07:14:25;;;;;;;0.00;0.00;;;;;;;;;;5072097;28;20017;-59
2022/05/06 07:16:51;;;;;;;0.00;0.00;;;;;;;;;;5073218;28;20023;-59
2022/05/06 07:19:16;;;;;;;0.65;0.65;;;;;;;;;;5066612;28;20028;-60
2022/05/06 07:21:41;;;;;;;0.00;0.00;;;;;;;;;;5069191;28;20024;-59
2022/05/06 07:24:07;;;;;;;2.58;0.95;;;;;;;;;;5071814;28;20039;-60
2022/05/06 07:26:32;;;;;;;1.02;1.02;;;;;;;;;;5068999;28;20400;-60
2022/05/06 07:28:57;;;;;;;0.68;0.57;;;;;;;;;;5074889;28;20083;-60
2022/05/06 07:31:22;;;;;;;0.20;0.20;;;;;;;;;;5072791;28;20021;-61
2022/05/06 07:33:48;;;;;;;0.00;0.00;;;;;;;;;;5068779;28;20099;-60
2022/05/06 07:36:13;;;;;;;0.00;0.00;;;;;;;;;;5054605;28;20033;-60
2022/05/06 07:38:38;;;;;;;0.10;0.10;;;;;;;;;;5063304;28;20028;-59
2022/05/06 07:41:04;;;;;;;0.15;0.15;;;;;;;;;;5058240;28;20115;-60
2022/05/06 07:43:30;;;;;;;1.00;1.00;;;;;;;;;;5054413;28;20025;-59
2022/05/06 07:45:55;;;;;;;0.00;0.00;;;;;;;;;;5054151;28;20032;-62
2022/05/06 07:48:21;;;;;;;0.00;0.00;;;;;;;;;;5054171;28;20033;-60
2022/05/06 07:50:46;;;;;;;0.60;0.20;;;;;;;;;;5057958;28;20157;-61
2022/05/06 07:53:12;;;;;;;0.00;0.00;;;;;;;;;;5046815;28;20590;-61
2022/05/06 07:55:37;;;;;;;0.03;0.03;;;;;;;;;;5053937;28;20023;-60
2022/05/06 07:58:04;;;;;;;0.00;0.00;;;;;;;;;;5052415;28;20024;-60
2022/05/06 08:00:30;;;;;;;0.00;0.00;;;;;;;;;;5051248;28;20027;-59
2022/05/06 08:05:39;;;;;;;0.20;0.20;;;;;;;;;;5046962;28;20396;-61
2022/05/06 08:08:04;;;;;;;0.00;0.00;;;;;;;;;;5047911;28;20033;-60
2022/05/06 08:10:29;;;;;;;0.10;0.08;;;;;;;;;;5047031;28;20028;-59
2022/05/06 08:12:55;;;;;;;0.00;0.00;;;;;;;;;;5057548;28;20028;-60
2022/05/06 08:15:20;;;;;;;0.00;0.00;;;;;;;;;;5053684;28;20289;-59
2022/05/06 08:17:46;;;;;;;0.00;0.00;;;;;;;;;;5056085;28;20125;-60
2022/05/06 08:20:12;;;;;;;0.10;0.10;;;;;;;;;;5048443;28;20029;-61
2022/05/06 08:22:37;;;;;;;0.00;0.00;;;;;;;;;;5047915;28;20462;-64
2022/05/06 08:25:06;;;;;;;0.00;0.00;;;;;;;;;;5049677;28;20034;-64
2022/05/06 08:27:34;;;;;;;;;;;;;;;;;;5050242;28;20544;-62
2022/05/06 08:29:59;;;;;;;0.00;0.00;;;;;;;;;;5045814;28;20524;-65
2022/05/06 08:32:24;;;;;;;0.30;0.30;;;;;;;;;;5057974;28;20135;-68
2022/05/06 08:34:52;;;;;;;0.00;0.00;;;;;;;;;;5054568;28;20287;-64
2022/05/06 08:37:21;;;;;;;0.00;0.00;;;;;;;;;;5048067;28;20036;-63
2022/05/06 08:39:46;;;;;;;1.00;0.70;;;;;;;;;;5044654;28;20043;-64
2022/05/06 08:42:14;;;;;;;0.40;0.30;;;;;;;;;;5047228;28;20494;-64
2022/05/06 08:52:53;;;;;;;0.00;0.00;;;;;;;;;;5044130;28;20500;-63
2022/05/06 08:55:19;;;;;;;0.00;0.00;;;;;;;;;;5046140;28;20021;-63
2022/05/06 08:57:45;;;;;;;0.00;0.00;;;;;;;;;;5051302;28;20470;-64
2022/05/06 09:00:10;;;;;;;0.28;0.28;;;;;;;;;;5047530;28;20455;-64
2022/05/06 09:02:39;;;;;;;0.00;0.00;;;;;;;;;;5050244;28;20093;-64
2022/05/06 09:05:14;;;;;;;0.00;0.00;;;;;;;;;;5043905;28;20377;-63
2022/05/06 09:07:41;;;;;;;0.15;0.15;;;;;;;;;;5048914;28;20048;-63
2022/05/06 09:10:14;;;;;;;0.10;0.10;;;;;;;;;;5048770;28;20029;-63
2022/05/06 09:12:42;;;;;;;0.00;0.00;;;;;;;;;;5045137;28;20039;-63
2022/05/06 09:17:52;;;;;;;0.47;0.20;;;;;;;;;;5045751;28;20492;-62
2022/05/06 09:20:21;;;;;;;1.77;0.10;;;;;;;;;;5047036;28;20033;-64
2022/05/06 09:22:47;;;;;;;0.00;0.00;;;;;;;;;;5051766;28;20041;-64
2022/05/06 09:25:32;;;;;;;0.20;0.20;;;;;;;;;;5048106;28;20029;-64
2022/05/06 09:27:57;;;;;;;0.00;0.00;;;;;;;;;;5044535;28;20021;-63
2022/05/06 09:30:23;;;;;;;0.00;0.00;;;;;;;;;;5049258;28;20025;-64
2022/05/06 09:32:48;;;;;;;1.60;0.47;;;;;;;;;;5044004;28;20028;-64
2022/05/06 09:35:14;;;;;;;0.38;0.20;;;;;;;;;;5062877;28;20041;-65
2022/05/06 09:37:40;;;;;;;0.10;0.10;;;;;;;;;;5067527;28;20370;-64
2022/05/06 09:40:07;;;;;;;1.08;0.68;;;;;;;;;;5066916;28;20465;-63
2022/05/06 09:42:32;;;;;;;3.92;3.83;;;;;;;;;;5066587;28;20024;-64
2022/05/06 09:44:58;;;;;;;0.00;0.00;;;;;;;;;;5047907;28;20060;-61
2022/05/06 09:47:25;;;;;;;0.00;0.00;;;;;;;;;;5058764;28;20043;-62
2022/05/06 09:49:52;;;;;;;0.00;0.00;;;;;;;;;;5066592;28;20024;-60
2022/05/06 09:52:17;;;;;;;0.00;0.00;;;;;;;;;;5048279;28;20029;-62
2022/05/06 09:54:43;;;;;;;0.10;0.10;;;;;;;;;;5067351;28;20028;-62
2022/05/06 09:57:13;;;;;;;0.68;0.68;;;;;;;;;;5066684;28;20036;-61
2022/05/06 09:59:38;;;;;;;0.00;0.00;;;;;;;;;;5065713;28;20107;-62
2022/05/06 10:02:04;;;;;;;0.30;0.30;;;;;;;;;;5064088;28;20120;-61
2022/05/06 10:04:29;;;;;;;0.00;0.00;;;;;;;;;;5065840;28;20045;-61
2022/05/06 10:06:56;;;;;;;0.50;0.50;;;;;;;;;;5065008;28;20078;-61
2022/05/06 10:09:23;;;;;;;0.85;0.70;;;;;;;;;;5066677;28;20024;-62
2022/05/06 10:11:51;;;;;;;0.20;0.20;;;;;;;;;;5069606;28;20013;-62
2022/05/06 10:14:17;;;;;;;2.33;1.05;;;;;;;;;;5068161;28;20032;-62
2022/05/06 10:16:42;;;;;;;0.65;0.65;;;;;;;;;;5067889;28;20048;-62
2022/05/06 10:19:26;;;;;;;0.50;0.50;;;;;;;;;;5067515;28;20029;-61
2022/05/06 10:21:52;;;;;;;0.25;0.25;;;;;;;;;;5069558;28;20191;-60
2022/05/06 10:24:17;;;;;;;0.35;0.35;;;;;;;;;;5069256;28;20105;-60
2022/05/06 10:26:47;;;;;;;0.00;0.00;;;;;;;;;;5070091;28;20481;-60
2022/05/06 10:32:45;;;;;;;0.00;0.00;;;;;;;;;;5068806;28;20551;-63
2022/05/06 10:35:12;;;;;;;0.15;0.13;;;;;;;;;;5067981;28;20051;-59
2022/05/06 10:37:39;;;;;;;0.20;0.20;;;;;;;;;;5071245;28;20020;-57
2022/05/06 10:40:22;;;;;;;0.47;0.30;;;;;;;;;;5071790;28;20016;-57
2022/05/06 10:42:48;;;;;;;0.30;0.20;;;;;;;;;;5070297;28;20024;-58
2022/05/06 10:45:23;;;;;;;0.10;0.10;;;;;;;;;;5071293;28;20031;-58
2022/05/06 10:47:48;;;;;;;0.00;0.00;;;;;;;;;;5071717;28;20075;-58
2022/05/06 10:50:15;;;;;;;0.38;0.38;;;;;;;;;;5070798;28;20481;-57
2022/05/06 10:52:40;;;;;;;0.00;0.00;;;;;;;;;;5071979;28;20020;-57
2022/05/06 10:55:07;;;;;;;0.03;0.03;;;;;;;;;;5071379;28;20105;-57
2022/05/06 10:57:48;;;;;;;1.20;1.10;;;;;;;;;;5071956;28;20012;-58
2022/05/06 11:00:13;;;;;;;0.10;0.10;;;;;;;;;;5071136;28;20802;-58
2022/05/06 11:02:39;;;;;;;0.03;0.03;;;;;;;;;;5071683;28;20035;-57
2022/05/06 11:05:04;;;;;;;0.17;0.17;;;;;;;;;;5069120;28;20059;-58
2022/05/06 11:07:30;;;;;;;0.00;0.00;;;;;;;;;;5068401;28;20020;-57
2022/05/06 11:09:56;;;;;;;0.00;0.00;;;;;;;;;;5068659;28;20013;-57
2022/05/06 11:12:30;;;;;;;0.20;0.20;;;;;;;;;;5070324;28;20098;-56
2022/05/06 11:14:56;;;;;;;0.80;0.43;;;;;;;;;;5069395;28;20075;-58
2022/05/06 11:17:27;;;;;;;0.20;0.20;;;;;;;;;;5069703;28;20416;-58
2022/05/06 11:19:52;;;;;;;0.20;0.20;;;;;;;;;;5069181;28;20469;-58
2022/05/06 11:22:20;;;;;;;0.00;0.00;;;;;;;;;;5069399;28;20022;-58
2022/05/06 11:24:45;;;;;;;0.28;0.28;;;;;;;;;;5069373;28;20036;-59
2022/05/06 11:27:14;;;;;;;0.30;0.30;;;;;;;;;;5068075;28;20074;-58
2022/05/06 11:29:49;;;;;;;2.83;1.67;;;;;;;;;;5069310;28;20048;-57
2022/05/06 11:32:15;;;;;;;0.00;0.00;;;;;;;;;;5068435;28;20028;-58
2022/05/06 11:34:47;;;;;;;0.30;0.30;;;;;;;;;;5066725;28;20048;-57
2022/05/06 11:37:19;;;;;;;0.22;0.22;;;;;;;;;;5068821;28;20119;-58
2022/05/06 11:39:44;;;;;;;0.17;0.17;;;;;;;;;;5069961;28;20030;-59
2022/05/06 11:42:20;;;;;;;0.00;0.00;;;;;;;;;;5069536;28;20381;-59
2022/05/06 11:47:38;;;;;;;1.10;0.80;;;;;;;;;;5070168;28;20432;-57
2022/05/06 11:50:03;;;;;;;0.10;0.10;;;;;;;;;;5070814;28;20016;-56
2022/05/06 11:52:28;;;;;;;1.65;1.55;;;;;;;;;;5070777;28;20286;-57
2022/05/06 11:54:54;;;;;;;0.35;0.35;;;;;;;;;;5070853;28;20032;-57
2022/05/06 11:57:19;;;;;;;0.00;0.00;;;;;;;;;;5071742;28;20020;-57
2022/05/06 11:59:44;;;;;;;0.15;0.15;;;;;;;;;;5053045;28;20034;-58
2022/05/06 12:02:11;;;;;;;0.03;0.03;;;;;;;;;;5070417;28;20025;-57
2022/05/06 12:04:37;;;;;;;0.13;0.10;;;;;;;;;;5071242;28;20032;-55
2022/05/06 12:07:02;;;;;;;0.03;0.03;;;;;;;;;;5071971;28;20090;-58
2022/05/06 12:09:28;;;;;;;0.20;0.20;;;;;;;;;;5070996;28;20531;-57
2022/05/06 12:12:07;;;;;;;1.00;1.00;;;;;;;;;;5071130;28;20114;-58
2022/05/06 12:14:32;;;;;;;;;;;;;;;;;;5072099;28;20028;-58
2022/05/06 12:17:01;;;;;;;0.35;0.35;;;;;;;;;;5070357;28;19908;-57
2022/05/06 12:19:43;;;;;;;0.28;0.15;;;;;;;;;;5069944;28;20466;-57
2022/05/06 12:22:15;;;;;;;0.00;0.00;;;;;;;;;;5068910;28;20060;-58
2022/05/06 12:24:45;;;;;;;0.00;0.00;;;;;;;;;;5044982;28;20118;-58
2022/05/06 12:27:11;;;;;;;2.63;0.63;;;;;;;;;;5067471;28;20015;-58
2022/05/06 12:29:37;;;;;;;0.70;0.70;;;;;;;;;;5069115;28;20035;-58
2022/05/06 12:32:03;;;;;;;0.10;0.10;;;;;;;;;;5067563;28;20044;-58
2022/05/06 12:34:29;;;;;;;0.00;0.00;;;;;;;;;;5045490;28;20128;-58
2022/05/06 12:37:07;;;;;;;0.30;0.30;;;;;;;;;;5051797;28;20040;-58
2022/05/06 12:39:37;;;;;;;0.32;0.32;;;;;;;;;;5052705;28;20064;-58
2022/05/06 12:42:10;;;;;;;0.17;0.17;;;;;;;;;;5047320;28;20052;-59
2022/05/06 12:44:36;;;;;;;0.90;0.90;;;;;;;;;;5057436;28;20039;-58
2022/05/06 12:50:07;;;;;;;1.20;0.17;;;;;;;;;;5051192;28;20032;-59
2022/05/06 12:52:33;;;;;;;0.17;0.17;;;;;;;;;;5053282;28;20100;-57
2022/05/06 12:54:58;;;;;;;0.00;0.00;;;;;;;;;;5055981;28;20433;-58
2022/05/06 12:57:24;;;;;;;0.75;0.43;;;;;;;;;;5049900;28;20028;-58
2022/05/06 12:59:49;;;;;;;0.00;0.00;;;;;;;;;;5048604;28;20039;-59
2022/05/06 13:02:15;;;;;;;0.00;0.00;;;;;;;;;;5058687;28;20543;-59
2022/05/06 13:04:40;;;;;;;0.00;0.00;;;;;;;;;;5055530;28;20119;-59
2022/05/06 13:07:08;;;;;;;0.00;0.00;;;;;;;;;;5052797;28;20060;-57
2022/05/06 13:09:33;;;;;;;0.60;0.60;;;;;;;;;;5032516;28;20021;-58
2022/05/06 13:11:59;;;;;;;0.03;0.03;;;;;;;;;;5054652;28;20028;-59
2022/05/06 13:14:24;;;;;;;1.35;0.28;;;;;;;;;;5052740;28;20028;-58
2022/05/06 13:16:51;;;;;;;0.55;0.55;;;;;;;;;;5054949;28;20430;-58
2022/05/06 13:19:16;;;;;;;0.28;0.28;;;;;;;;;;5053869;28;20488;-60
2022/05/06 13:21:41;;;;;;;0.35;0.35;;;;;;;;;;5050439;28;20021;-59
2022/05/06 13:24:09;;;;;;;0.00;0.00;;;;;;;;;;5050625;28;20104;-58
2022/05/06 13:26:37;;;;;;;0.52;0.47;;;;;;;;;;5051034;28;20089;-58
2022/05/06 13:29:03;;;;;;;0.55;0.55;;;;;;;;;;5054705;28;20076;-58
2022/05/06 13:31:28;;;;;;;0.00;0.00;;;;;;;;;;5055008;28;20016;-59
2022/05/06 13:33:54;;;;;;;0.00;0.00;;;;;;;;;;5049927;28;20047;-58
2022/05/06 13:36:19;;;;;;;0.13;0.13;;;;;;;;;;5050071;28;20024;-58
2022/05/06 13:38:44;;;;;;;0.40;0.40;;;;;;;;;;5047724;28;20518;-59
2022/05/06 13:41:10;;;;;;;0.63;0.60;;;;;;;;;;5047564;28;20382;-59
2022/05/06 13:43:35;;;;;;;0.30;0.30;;;;;;;;;;5058136;28;20029;-59
2022/05/06 13:46:00;;;;;;;0.35;0.35;;;;;;;;;;5056602;28;20025;-60
2022/05/06 13:48:25;;;;;;;0.20;0.20;;;;;;;;;;5059519;28;20025;-58
2022/05/06 13:50:51;;;;;;;0.00;0.00;;;;;;;;;;5051515;28;20105;-58
2022/05/06 13:53:16;;;;;;;0.00;0.00;;;;;;;;;;5053438;28;20051;-58
2022/05/06 14:01:11;;;;;;;0.03;0.03;;;;;;;;;;5064388;28;20028;-58
2022/05/06 14:03:36;;;;;;;0.03;0.03;;;;;;;;;;5060740;28;20021;-59
2022/05/06 14:06:01;;;;;;;0.00;0.00;;;;;;;;;;5054082;28;20017;-59
2022/05/06 14:08:26;;;;;;;0.00;0.00;;;;;;;;;;5059499;28;20121;-59
2022/05/06 14:10:52;;;;;;;0.00;0.00;;;;;;;;;;5053984;28;20024;-59
2022/05/06 14:13:17;;;;;;;0.00;0.00;;;;;;;;;;5056094;28;20032;-58
2022/05/06 14:15:42;;;;;;;0.05;0.00;;;;;;;;;;5056052;28;20028;-59
2022/05/06 14:18:08;;;;;;;0.00;0.00;;;;;;;;;;5059095;28;20031;-59
2022/05/06 14:20:33;;;;;;;0.00;0.00;;;;;;;;;;5059013;28;20361;-58
2022/05/06 14:22:58;;;;;;;0.00;0.00;;;;;;;;;;5052567;28;20461;-57
2022/05/06 14:25:23;;;;;;;50.27;3.00;;;;;;;;;;5054975;28;20032;-57
2022/05/06 14:27:49;;;;;;;0.00;0.00;;;;;;;;;;5059630;28;20760;-58
2022/05/06 14:30:15;;;;;;;0.00;0.00;;;;;;;;;;5059619;28;20024;-58
2022/05/06 14:32:40;;;;;;;0.00;0.00;;;;;;;;;;5055672;28;20358;-58
2022/05/06 14:35:20;;;;;;;0.00;0.00;;;;;;;;;;5063603;28;20052;-58
2022/05/06 14:37:48;;;;;;;0.00;0.00;;;;;;;;;;5070539;28;20442;-58
2022/05/06 14:40:14;;;;;;;0.23;0.23;;;;;;;;;;5072427;28;20032;-58
2022/05/06 14:42:39;;;;;;;0.00;0.00;;;;;;;;;;5071281;28;20468;-58
2022/05/06 14:45:04;;;;;;;0.00;0.00;;;;;;;;;;5071066;28;20393;-58
2022/05/06 14:47:30;;;;;;;0.00;0.00;;;;;;;;;;5070715;28;20293;-56
2022/05/06 14:49:55;;;;;;;0.00;0.00;;;;;;;;;;5071188;28;20472;-58
2022/05/06 14:52:23;;;;;;;0.10;0.10;;;;;;;;;;5068553;28;20021;-57
2022/05/06 14:54:51;;;;;;;0.17;0.17;;;;;;;;;;5070543;28;20359;-58
2022/05/06 14:57:16;;;;;;;0.13;0.13;;;;;;;;;;5071548;28;20533;-57
2022/05/06 14:59:41;;;;;;;0.60;0.47;;;;;;;;;;5070550;28;20112;-59
2022/05/06 15:02:07;;;;;;;0.60;0.10;;;;;;;;;;5070450;28;20127;-59
2022/05/06 15:04:32;;;;;;;0.10;0.10;;;;;;;;;;5071646;28;20027;-59
2022/05/06 15:06:57;;;;;;;0.75;0.75;;;;;;;;;;5070873;28;20092;-58
2022/05/06 15:09:22;;;;;;;0.38;0.38;;;;;;;;;;5069147;28;20029;-58
2022/05/06 15:11:48;;;;;;;0.08;0.08;;;;;;;;;;5069780;28;20583;-58
2022/05/06 15:14:14;;;;;;;0.00;0.00;;;;;;;;;;5071039;28;20099;-59
2022/05/06 15:16:39;;;;;;;0.45;0.43;;;;;;;;;;5070800;28;20047;-59
2022/05/06 15:21:48;;;;;;;0.00;0.00;;;;;;;;;;5070139;28;20043;-57
2022/05/06 15:24:13;;;;;;;0.00;0.00;;;;;;;;;;5069835;28;20020;-59
2022/05/06 15:26:38;;;;;;;0.10;0.10;;;;;;;;;;5069173;28;20016;-60
2022/05/06 15:29:03;;;;;;;0.03;0.00;;;;;;;;;;5069259;28;20039;-59
2022/05/06 15:31:29;;;;;;;0.00;0.00;;;;;;;;;;5069777;28;20028;-56
2022/05/06 15:33:55;;;;;;;0.00;0.00;;;;;;;;;;5067545;28;20571;-58